Time;durP1;ratioP1;P1;durP2;ratioP2;P2;SDS_P1;SDS_P2;PMS_P1;PMS_P2;Temp;Humidity;BMP_temperature;BMP_pressure;BME280_temperature;BME280_humidity;BME280_pressure;Samples;Min_cycle;Max_cycle;Signal;HPM_P1;HPM_P2
2022/05/26 12:26:56;;;;;;;4.65;1.38;;;;;;;18.00;51.99;97288.84;2101732;27;20573;-64
2022/05/26 14:06:28;;;;;;;3.22;0.82;;;;;;;17.84;50.21;97253.75;2089770;28;20555;-65
2022/05/26 14:07:32;;;;;;;3.67;1.10;;;;;;;18.33;49.12;97255.88;2071273;28;20278;-65
2022/05/26 14:08:47;;;;;;;2.70;0.95;;;;;;;18.59;48.66;97261.22;2084398;28;20239;-65
2022/05/26 14:10:09;;;;;;;2.33;1.00;;;;;;;18.55;48.34;97250.00;2080514;28;20200;-65
2022/05/26 14:11:45;;;;;;;11.98;7.32;;;;;;;18.49;48.49;97246.94;2081820;28;20208;-64
2022/05/26 14:13:09;;;;;;;9.55;5.30;;;;;;;18.61;49.15;97246.09;2089296;28;20220;-65
2022/05/26 14:14:42;;;;;;;3.70;0.90;;;;;;;18.64;48.43;97245.91;2086072;28;20193;-64
2022/05/26 14:16:05;;;;;;;2.40;1.25;;;;;;;18.40;48.93;97248.41;2091388;28;20192;-64
2022/05/26 14:17:10;;;;;;;1.98;0.90;;;;;;;18.46;48.08;97245.31;2083676;28;20228;-64
2022/05/26 14:18:20;;;;;;;2.45;1.00;;;;;;;18.44;48.57;97247.22;2089404;28;20569;-64
2022/05/26 14:19:29;;;;;;;4.50;1.20;;;;;;;18.54;48.52;97236.91;2087784;28;20309;-64
2022/05/26 14:20:31;;;;;;;2.05;0.85;;;;;;;19.07;47.33;97240.31;2088013;28;20192;-64
2022/05/26 14:21:36;;;;;;;2.08;1.00;;;;;;;19.53;46.41;97238.03;2088849;28;20200;-64
2022/05/26 14:22:46;;;;;;;5.18;1.38;;;;;;;19.74;46.36;97240.91;2088576;28;20204;-64
2022/05/26 14:24:04;;;;;;;2.38;0.70;;;;;;;19.40;46.42;97236.25;2089753;28;20207;-64
2022/05/26 14:25:06;;;;;;;2.72;0.90;;;;;;;19.36;45.60;97237.44;2093599;28;20208;-64
2022/05/26 14:26:26;;;;;;;3.88;0.80;;;;;;;19.72;45.47;97235.72;2086062;28;20558;-64
2022/05/26 14:27:51;;;;;;;2.28;1.00;;;;;;;20.10;44.16;97225.97;2089027;28;20676;-64
2022/05/26 14:28:52;;;;;;;4.90;0.82;;;;;;;20.30;43.78;97228.91;2090768;28;20239;-64
2022/05/26 14:30:23;;;;;;;2.17;0.98;;;;;;;20.04;43.83;97226.41;2092486;28;20196;-64
2022/05/26 14:31:27;;;;;;;3.03;0.88;;;;;;;19.98;44.01;97222.41;2080076;28;20200;-64
2022/05/26 14:32:38;;;;;;;4.15;0.98;;;;;;;20.02;43.46;97218.59;2085880;28;20192;-64
2022/05/26 14:33:39;;;;;;;2.38;0.90;;;;;;;19.89;43.56;97220.44;2087115;28;20254;-64
2022/05/26 14:34:53;;;;;;;4.20;1.00;;;;;;;19.20;44.89;97226.22;2089939;28;20200;-64
2022/05/26 14:35:56;;;;;;;2.60;0.80;;;;;;;18.88;46.24;97216.03;2089126;28;20637;-64
2022/05/26 14:36:58;;;;;;;2.17;0.85;;;;;;;18.85;46.07;97218.91;2084607;28;20230;-64
2022/05/26 14:37:59;;;;;;;1.70;1.00;;;;;;;18.86;46.97;97223.25;2099377;28;20204;-64
2022/05/26 14:39:01;;;;;;;3.55;1.00;;;;;;;18.62;47.16;97220.50;2092831;28;20200;-65
2022/05/26 14:40:02;;;;;;;2.85;0.80;;;;;;;18.53;47.35;97222.81;2088649;28;20207;-65
2022/05/26 14:41:04;;;;;;;3.00;0.90;;;;;;;18.58;47.70;97225.16;2089554;28;20191;-64
2022/05/26 14:42:07;;;;;;;3.17;1.13;;;;;;;18.64;47.64;97226.50;2087753;28;20236;-64
2022/05/26 14:43:10;;;;;;;1.88;0.80;;;;;;;18.45;48.00;97222.50;2087389;28;20730;-64
2022/05/26 14:44:13;;;;;;;2.35;0.95;;;;;;;18.46;48.36;97221.53;2088640;28;20191;-64
2022/05/26 14:45:18;;;;;;;3.28;0.90;;;;;;;18.31;48.57;97222.56;2090318;28;20544;-64
2022/05/26 14:46:20;;;;;;;1.60;0.80;;;;;;;18.37;49.06;97209.78;2083178;28;20201;-64
2022/05/26 14:47:21;;;;;;;2.00;0.90;;;;;;;18.65;48.39;97225.56;2090735;28;20298;-64
2022/05/26 14:48:23;;;;;;;1.90;0.85;;;;;;;18.85;48.28;97224.19;2091917;28;20212;-64
2022/05/26 14:49:24;;;;;;;3.35;0.90;;;;;;;18.92;48.53;97217.56;2084840;28;20224;-64
2022/05/26 14:50:25;;;;;;;2.75;1.00;;;;;;;18.71;49.04;97223.34;2087604;28;20200;-64
2022/05/26 14:51:35;;;;;;;2.85;1.35;;;;;;;18.79;49.68;97225.47;2080316;28;20200;-64
2022/05/26 14:52:38;;;;;;;3.05;0.95;;;;;;;18.75;49.96;97222.19;2089654;28;20280;-65
2022/05/26 14:56:20;;;;;;;3.97;1.15;;;;;;;19.19;49.50;97225.38;2085660;28;20200;-64
2022/05/26 14:57:21;;;;;;;2.20;1.10;;;;;;;19.23;49.73;97224.19;2089325;28;20606;-64
2022/05/26 14:58:23;;;;;;;5.63;1.30;;;;;;;19.27;50.12;97222.19;2089182;28;20561;-64
2022/05/26 14:59:24;;;;;;;0.90;0.70;;;;;;;19.38;49.95;97224.91;2087530;28;20197;-64
2022/05/26 15:00:41;;;;;;;6.75;0.95;;;;;;;19.43;49.78;97221.94;2086574;28;20200;-65
2022/05/26 15:01:42;;;;;;;3.17;1.35;;;;;;;19.49;49.71;97223.28;2090981;28;20216;-65
2022/05/26 15:02:44;;;;;;;1.98;0.80;;;;;;;19.43;50.26;97221.94;2093160;28;20203;-64
2022/05/26 15:03:46;;;;;;;8.35;1.25;;;;;;;19.27;50.57;97219.53;2086594;28;20283;-64
2022/05/26 15:04:48;;;;;;;3.38;1.50;;;;;;;19.42;50.80;97220.25;2087983;28;20207;-65
2022/05/26 15:05:52;;;;;;;3.65;1.33;;;;;;;19.23;50.85;97212.75;2089681;28;20567;-64
2022/05/26 15:06:53;;;;;;;1.88;1.10;;;;;;;19.20;50.61;97219.13;2084253;28;20230;-65
2022/05/26 15:07:55;;;;;;;2.80;1.02;;;;;;;19.69;49.67;97214.78;2095159;28;20191;-64
2022/05/26 15:08:56;;;;;;;2.83;1.00;;;;;;;19.69;49.81;97211.25;2092775;28;20699;-64
2022/05/26 15:09:58;;;;;;;1.92;1.00;;;;;;;19.67;49.84;97213.19;2089075;28;20204;-65
2022/05/26 15:10:59;;;;;;;5.20;0.90;;;;;;;19.60;49.49;97217.22;2085344;28;20197;-64
2022/05/26 15:12:02;;;;;;;7.90;1.20;;;;;;;19.55;49.33;97214.91;2074503;28;20224;-64
2022/05/26 15:13:04;;;;;;;3.70;1.05;;;;;;;19.62;49.51;97216.16;2085269;28;20563;-64
2022/05/26 15:14:05;;;;;;;2.17;0.80;;;;;;;19.50;49.97;97209.09;2088403;28;20699;-64
2022/05/26 15:15:10;;;;;;;4.25;1.15;;;;;;;20.10;48.55;97218.00;2083366;28;20592;-63
2022/05/26 15:16:13;;;;;;;3.35;1.35;;;;;;;20.46;47.75;97216.19;2087142;28;20192;-63
2022/05/26 15:17:19;;;;;;;11.38;1.13;;;;;;;20.14;48.33;97216.00;2078807;28;20242;-64
2022/05/26 15:18:26;;;;;;;8.55;1.27;;;;;;;19.58;49.68;97210.25;2090312;28;20196;-64
2022/05/26 15:19:35;;;;;;;2.17;1.25;;;;;;;19.84;49.08;97211.97;2084173;28;20203;-64
2022/05/26 15:20:37;;;;;;;2.22;0.85;;;;;;;20.29;48.18;97206.00;2084616;28;20204;-64
2022/05/26 15:21:39;;;;;;;4.85;1.48;;;;;;;20.13;47.99;97206.34;2087050;28;20223;-64
2022/05/26 15:22:41;;;;;;;3.53;1.13;;;;;;;20.07;48.12;97202.31;2087194;28;20284;-64
2022/05/26 15:23:43;;;;;;;1.45;1.10;;;;;;;20.56;48.00;97197.78;2085343;28;20649;-65
2022/05/26 15:24:45;;;;;;;1.58;1.00;;;;;;;20.82;47.32;97210.88;2083189;28;20672;-64
2022/05/26 15:27:07;;;;;;;3.88;0.93;;;;;;;20.76;46.69;97198.06;2078162;28;20224;-64
2022/05/26 15:28:10;;;;;;;1.77;1.00;;;;;;;20.78;46.59;97209.44;2090926;28;20193;-64
2022/05/26 15:29:12;;;;;;;2.35;1.00;;;;;;;20.67;46.54;97203.09;2085170;28;20198;-64
2022/05/26 15:30:18;;;;;;;2.13;0.98;;;;;;;20.85;46.35;97202.69;2083623;28;20197;-65
2022/05/26 15:31:20;;;;;;;2.88;1.08;;;;;;;21.45;45.67;97205.91;2080201;28;20233;-64
2022/05/26 15:32:35;;;;;;;7.70;1.38;;;;;;;21.80;44.85;97196.94;2084101;28;20212;-65
2022/05/26 15:33:36;;;;;;;4.32;0.98;;;;;;;21.92;44.35;97207.53;2083351;28;20279;-64
2022/05/26 15:34:41;;;;;;;3.75;1.13;;;;;;;21.91;43.61;97212.00;2085952;28;20196;-64
2022/05/26 15:35:42;;;;;;;3.25;1.05;;;;;;;21.26;43.98;97193.25;2084138;28;20503;-64
2022/05/26 15:36:44;;;;;;;2.17;1.13;;;;;;;21.22;44.04;97194.47;2077429;28;20220;-65
2022/05/26 15:37:47;;;;;;;2.10;1.00;;;;;;;20.98;44.04;97184.81;2091791;28;20676;-64
2022/05/26 15:38:51;;;;;;;2.70;0.95;;;;;;;20.98;44.48;97198.09;2085815;28;20561;-64
2022/05/26 15:39:54;;;;;;;1.42;1.13;;;;;;;20.58;44.85;97184.38;2084812;28;20534;-65
2022/05/26 15:40:55;;;;;;;3.45;1.00;;;;;;;20.44;45.98;97188.94;2088071;28;20200;-65
2022/05/26 15:41:57;;;;;;;3.55;1.02;;;;;;;20.51;45.67;97190.16;2086768;28;20243;-65
2022/05/26 15:42:58;;;;;;;4.45;1.90;;;;;;;20.53;46.13;97190.03;2086268;28;20208;-65
2022/05/26 15:44:00;;;;;;;3.78;1.20;;;;;;;20.82;45.34;97186.97;2082633;28;20200;-65
2022/05/26 15:45:01;;;;;;;1.15;0.80;;;;;;;20.91;45.05;97191.56;2083663;28;20204;-64
2022/05/26 15:46:08;;;;;;;4.03;1.30;;;;;;;20.66;44.94;97196.09;2084503;28;20216;-65
2022/05/26 15:47:12;;;;;;;1.95;0.90;;;;;;;20.49;45.77;97189.47;2071661;28;20258;-64
2022/05/26 15:48:14;;;;;;;3.58;1.00;;;;;;;20.31;46.24;97183.72;2083262;28;20205;-64
2022/05/26 15:49:18;;;;;;;2.90;1.00;;;;;;;20.11;46.58;97184.38;2084700;28;20189;-64
2022/05/26 15:50:26;;;;;;;2.03;1.10;;;;;;;19.84;47.11;97185.47;2082722;28;20198;-65
2022/05/26 15:51:28;;;;;;;3.25;1.30;;;;;;;19.82;47.44;97182.97;2072088;28;20207;-64
2022/05/26 15:52:31;;;;;;;2.50;0.90;;;;;;;19.91;46.72;97189.38;2084446;28;20192;-64
2022/05/26 15:53:32;;;;;;;2.65;0.80;;;;;;;19.74;46.81;97187.91;2079677;28;20707;-64
2022/05/26 15:54:34;;;;;;;4.90;1.05;;;;;;;19.91;46.02;97194.69;2084299;28;20207;-64
2022/05/26 15:55:35;;;;;;;3.28;1.02;;;;;;;20.10;45.40;97186.22;2082065;28;20632;-64
2022/05/26 15:56:41;;;;;;;1.48;0.90;;;;;;;20.39;45.32;97184.00;2072624;28;20197;-64
2022/05/26 15:57:43;;;;;;;1.83;1.05;;;;;;;20.23;45.33;97180.81;2079973;28;20205;-64
2022/05/26 15:58:46;;;;;;;1.55;0.90;;;;;;;20.26;45.43;97183.22;2079901;28;20233;-64
2022/05/26 15:59:48;;;;;;;12.10;8.43;;;;;;;20.39;45.55;97178.69;2080553;28;20660;-64
2022/05/26 16:00:50;;;;;;;21.33;10.82;;;;;;;20.46;45.46;97180.88;2081255;28;20201;-64
2022/05/26 16:01:52;;;;;;;5.45;2.75;;;;;;;20.68;45.58;97183.59;2082067;28;20217;-65
2022/05/26 16:02:54;;;;;;;5.13;1.20;;;;;;;20.79;44.82;97184.59;2082722;28;20217;-66
2022/05/26 16:03:55;;;;;;;2.60;0.90;;;;;;;20.31;45.16;97167.81;2083089;28;20636;-66
2022/05/26 16:04:57;;;;;;;2.13;1.10;;;;;;;20.17;45.02;97170.69;2086079;28;20201;-66
2022/05/26 16:05:59;;;;;;;1.77;0.95;;;;;;;19.65;45.45;97175.38;2082823;28;20219;-65
2022/05/26 16:07:04;;;;;;;1.65;0.90;;;;;;;19.11;46.05;97171.28;2073780;28;20232;-65
2022/05/26 16:08:06;;;;;;;5.05;1.20;;;;;;;19.22;46.40;97166.06;2083600;28;20204;-65
2022/05/26 16:09:08;;;;;;;5.35;0.90;;;;;;;19.22;46.68;97176.66;2086367;28;20734;-65
2022/05/26 16:10:14;;;;;;;4.00;0.75;;;;;;;19.09;46.83;97179.34;2082334;28;20197;-64
2022/05/26 16:11:16;;;;;;;2.05;1.02;;;;;;;19.08;46.80;97175.00;2081912;28;20718;-64
2022/05/26 16:12:17;;;;;;;1.50;0.80;;;;;;;19.31;46.46;97176.03;2078687;28;20228;-63
2022/05/26 16:13:19;;;;;;;1.83;0.90;;;;;;;19.50;46.56;97170.25;2088226;28;20644;-64
2022/05/26 16:14:29;;;;;;;1.63;0.90;;;;;;;19.83;45.92;97171.41;2082361;28;20598;-64
2022/05/26 16:15:31;;;;;;;1.48;0.85;;;;;;;20.00;45.82;97164.00;2083032;28;20201;-64
2022/05/26 16:16:33;;;;;;;1.38;0.80;;;;;;;19.96;45.75;97160.72;2075286;28;20718;-64
2022/05/26 16:17:35;;;;;;;3.50;1.05;;;;;;;19.94;45.67;97164.47;2090148;28;20257;-64
2022/05/26 16:18:36;;;;;;;2.05;0.80;;;;;;;20.24;45.54;97161.31;2086314;28;20200;-64
2022/05/26 16:19:38;;;;;;;2.92;0.90;;;;;;;19.85;46.01;97165.97;2081915;28;20220;-64
2022/05/26 16:20:40;;;;;;;6.95;0.88;;;;;;;19.65;46.68;97167.41;2084218;28;20197;-64
2022/05/26 16:21:42;;;;;;;4.00;1.08;;;;;;;19.46;46.85;97170.56;2083001;28;20560;-65
2022/05/26 16:22:45;;;;;;;4.80;1.27;;;;;;;19.60;46.40;97165.09;2086596;28;20204;-65
2022/05/26 16:23:53;;;;;;;3.45;2.03;;;;;;;19.64;45.92;97166.59;2086903;28;20192;-65
2022/05/26 16:24:55;;;;;;;2.15;1.10;;;;;;;19.66;45.66;97169.13;2083721;28;20205;-63
2022/05/26 16:25:59;;;;;;;3.90;1.50;;;;;;;19.78;45.75;97175.31;2081850;28;20197;-65
2022/05/26 16:27:03;;;;;;;2.88;0.80;;;;;;;19.87;45.59;97164.03;2078964;28;20220;-65
2022/05/26 16:28:05;;;;;;;1.42;0.90;;;;;;;20.01;45.39;97161.22;2090098;28;20261;-65
2022/05/26 16:29:09;;;;;;;5.63;1.00;;;;;;;19.89;45.41;97175.38;2082595;28;20192;-65
2022/05/26 16:30:19;;;;;;;1.63;0.90;;;;;;;19.79;45.65;97174.34;2083536;28;20287;-65
2022/05/26 16:31:24;;;;;;;2.40;0.90;;;;;;;19.81;46.15;97167.16;2076410;28;20197;-65
2022/05/26 16:32:27;;;;;;;4.20;1.10;;;;;;;19.89;46.26;97167.44;2083131;28;20665;-65
2022/05/26 16:33:28;;;;;;;3.58;1.00;;;;;;;20.18;45.44;97156.47;2082969;28;20200;-65
2022/05/26 16:34:30;;;;;;;3.85;1.02;;;;;;;20.19;45.50;97163.47;2085277;28;20196;-65
2022/05/26 16:36:56;;;;;;;2.97;0.80;;;;;;;19.87;46.03;97158.75;2073232;28;20228;-65
2022/05/26 16:38:00;;;;;;;1.25;1.00;;;;;;;19.68;46.40;97162.75;2083689;28;20211;-65
2022/05/26 16:39:02;;;;;;;1.40;0.80;;;;;;;19.56;45.59;97155.69;2084394;28;20616;-65
2022/05/26 16:40:05;;;;;;;1.40;0.77;;;;;;;19.70;45.09;97165.28;2085606;28;20205;-65
2022/05/26 16:41:08;;;;;;;1.20;0.90;;;;;;;19.76;45.17;97159.53;2085348;28;20200;-65
2022/05/26 16:42:13;;;;;;;1.20;0.90;;;;;;;19.77;45.49;97153.28;2083910;28;20225;-63
2022/05/26 16:43:14;;;;;;;1.00;0.77;;;;;;;19.44;46.19;97149.50;2080217;28;20273;-63
2022/05/26 16:44:17;;;;;;;40.08;19.08;;;;;;;19.49;46.49;97157.09;2080908;28;20213;-62
2022/05/26 16:45:18;;;;;;;33.78;10.80;;;;;;;19.59;46.29;97150.16;2084616;28;20215;-63
2022/05/26 16:46:21;;;;;;;22.05;10.10;;;;;;;19.63;46.48;97156.94;2078206;28;20189;-63
2022/05/26 16:47:22;;;;;;;32.42;14.10;;;;;;;19.48;47.14;97153.59;2081168;28;20205;-63
2022/05/26 16:48:24;;;;;;;23.55;9.40;;;;;;;19.63;46.76;97153.44;2081550;28;20197;-63
2022/05/26 16:49:25;;;;;;;117.30;51.70;;;;;;;19.56;46.75;97153.88;2082899;28;20599;-63
2022/05/26 16:50:32;;;;;;;239.43;129.48;;;;;;;19.49;47.16;97159.72;2083546;28;20529;-63
2022/05/26 16:51:40;;;;;;;235.45;137.75;;;;;;;19.32;47.35;97155.66;2074669;28;20193;-63
2022/05/26 16:52:44;;;;;;;244.57;153.73;;;;;;;19.24;47.38;97167.66;2093791;28;20199;-63
2022/05/26 16:53:45;;;;;;;97.63;57.88;;;;;;;19.25;47.11;97157.94;2084611;28;20201;-62
2022/05/26 16:54:47;;;;;;;86.78;53.70;;;;;;;19.15;47.89;97159.53;2086171;28;20201;-63
2022/05/26 16:55:49;;;;;;;26.48;15.93;;;;;;;19.11;47.70;97160.69;2083519;28;20801;-61
2022/05/26 16:56:51;;;;;;;18.27;11.68;;;;;;;19.07;47.80;97152.97;2072237;28;20223;-63
2022/05/26 16:57:53;;;;;;;10.15;5.85;;;;;;;19.21;47.77;97156.44;2084230;28;20204;-63
2022/05/26 16:59:00;;;;;;;10.65;7.38;;;;;;;19.46;47.64;97157.31;2082830;28;20285;-64
2022/05/26 17:00:05;;;;;;;7.78;2.35;;;;;;;19.44;46.98;97153.94;2083954;28;20205;-63
2022/05/26 17:01:08;;;;;;;8.38;4.85;;;;;;;19.34;47.22;97148.47;2082824;28;20205;-63
2022/05/26 17:02:10;;;;;;;3.90;2.35;;;;;;;19.24;47.85;97156.22;2085920;28;20228;-63
2022/05/26 17:03:12;;;;;;;16.02;11.63;;;;;;;19.24;47.57;97153.56;2084220;28;20197;-63
2022/05/26 17:04:14;;;;;;;3.53;2.75;;;;;;;19.29;47.70;97147.94;2083350;28;20242;-63
2022/05/26 17:05:15;;;;;;;6.00;5.03;;;;;;;19.29;47.97;97151.44;2082616;28;20244;-63
2022/05/26 17:06:17;;;;;;;2.28;1.85;;;;;;;19.37;47.89;97150.88;2082876;28;20197;-63
2022/05/26 17:07:19;;;;;;;4.10;1.75;;;;;;;19.29;47.99;97153.22;2070582;28;20232;-64
2022/05/26 17:08:22;;;;;;;4.43;1.60;;;;;;;19.09;47.75;97156.34;2072821;28;20260;-63
2022/05/26 17:09:27;;;;;;;1.83;1.08;;;;;;;19.06;48.29;97159.22;2080788;28;20546;-64
2022/05/26 17:10:29;;;;;;;3.58;2.60;;;;;;;19.19;48.17;97155.72;2081480;28;20196;-63
2022/05/26 17:11:37;;;;;;;5.07;1.73;;;;;;;19.10;47.79;97151.91;2072953;28;20283;-64
2022/05/26 17:20:57;;;;;;;16.23;3.70;;;;;;;18.97;47.59;97159.03;2083770;28;20200;-63
2022/05/26 17:22:00;;;;;;;7.88;4.15;;;;;;;18.83;47.38;97154.66;2078182;28;20741;-64
2022/05/26 17:23:01;;;;;;;5.93;3.47;;;;;;;18.95;47.47;97153.00;2090652;28;20203;-63
2022/05/26 17:24:04;;;;;;;9.40;5.25;;;;;;;18.93;47.14;97161.03;2085916;28;20199;-63
2022/05/26 17:25:06;;;;;;;3.75;1.75;;;;;;;18.80;47.69;97146.97;2079648;28;20204;-64
2022/05/26 17:26:12;;;;;;;6.28;3.90;;;;;;;18.66;48.06;97148.75;2083206;28;20197;-63
2022/05/26 17:27:24;;;;;;;7.63;3.50;;;;;;;18.80;48.02;97157.53;2072808;28;20227;-63
2022/05/26 17:28:26;;;;;;;24.30;13.18;;;;;;;18.74;48.20;97146.44;2081633;28;20205;-63
2022/05/26 17:29:27;;;;;;;8.13;4.35;;;;;;;18.69;48.30;97148.56;2084457;28;20648;-63
